Molokai Airport Kaunakakai US
ICAO: PHMK
IATA:
Category: Medium
Scheduled Services:

Elevation: 454 ft
TransAlt. 18000 ft.

Airport Communications:
ATIS:128.2
HONOLULU CNTR:124.1
CTAF:125.7
GND:121.9
HONOLULU RDO:116.1
TWR:125.7

PHMK Zoom In..

If you have problems with the map follow the link
https://www.worldairports.se/pages/airport.php?
ICAO=PHMK

Runways:

(A) RW 05 length 4494 ft width 100 ft
---- / hdg 49

(B) RW 17 length 3118 ft width 100 ft
---- / hdg 169

(C) RW 23 length 4494 ft width 100 ft
---- / hdg 229

(D) RW 35 length 3118 ft width 100 ft
---- / hdg 349

Location; PHMK
Day. 20 / Time. 20.54 Zulu
* Altimeter: 29.99
* Temperature: 25° c. 77°f.
* Wind from: 170° Speed 04 kn.
Dewpoint: 20° c.
Visibility: 10 Statute Miles.
Clouds: Scattered 2000 ft.
Clouds: Scattered 2600 ft.
Clouds: Broken 3200 ft.

PHMK 202054Z 17004KT 10SM SCT020 SCT026 BKN032 25/20 A2999 RMK AO2 SLP159 T02500200 50009


Wind From 170°
Speed 04 kn.

 
 
jpsmedia.com for Web Design worldairports.se 2019   terms of use